sensor_id;sensor_type;location;lat;lon;timestamp;P1;durP1;ratioP1;P2;durP2;ratioP2
34064;SDS011;20339;49.754;20.158;2023-04-03T00:01:15;1.10;;;0.80;;
34064;SDS011;20339;49.754;20.158;2023-04-03T00:03:43;2.40;;;1.10;;
34064;SDS011;20339;49.754;20.158;2023-04-03T00:06:12;1.30;;;1.10;;
34064;SDS011;20339;49.754;20.158;2023-04-03T00:08:41;1.00;;;0.90;;
34064;SDS011;20339;49.754;20.158;2023-04-03T00:11:09;1.20;;;1.10;;
34064;SDS011;20339;49.754;20.158;2023-04-03T00:13:38;2.00;;;1.30;;
34064;SDS011;20339;49.754;20.158;2023-04-03T00:16:07;1.10;;;1.00;;
34064;SDS011;20339;49.754;20.158;2023-04-03T00:18:36;1.40;;;1.20;;
34064;SDS011;20339;49.754;20.158;2023-04-03T00:21:06;1.60;;;1.30;;
34064;SDS011;20339;49.754;20.158;2023-04-03T00:23:36;1.50;;;1.40;;
34064;SDS011;20339;49.754;20.158;2023-04-03T00:26:05;1.30;;;0.90;;
34064;SDS011;20339;49.754;20.158;2023-04-03T00:28:34;1.10;;;1.00;;
34064;SDS011;20339;49.754;20.158;2023-04-03T00:31:02;1.70;;;1.10;;
34064;SDS011;20339;49.754;20.158;2023-04-03T00:33:31;1.20;;;1.10;;
34064;SDS011;20339;49.754;20.158;2023-04-03T00:36:01;1.20;;;1.10;;
34064;SDS011;20339;49.754;20.158;2023-04-03T00:38:33;1.20;;;1.00;;
34064;SDS011;20339;49.754;20.158;2023-04-03T00:41:02;1.40;;;1.30;;
34064;SDS011;20339;49.754;20.158;2023-04-03T00:43:31;1.50;;;1.40;;
34064;SDS011;20339;49.754;20.158;2023-04-03T00:45:59;1.80;;;1.60;;
34064;SDS011;20339;49.754;20.158;2023-04-03T00:48:29;1.90;;;1.70;;
34064;SDS011;20339;49.754;20.158;2023-04-03T00:51:01;2.00;;;1.80;;
34064;SDS011;20339;49.754;20.158;2023-04-03T00:56:01;3.40;;;1.80;;
34064;SDS011;20339;49.754;20.158;2023-04-03T00:58:33;2.30;;;1.80;;
34064;SDS011;20339;49.754;20.158;2023-04-03T01:01:06;2.70;;;1.80;;
34064;SDS011;20339;49.754;20.158;2023-04-03T01:03:39;2.20;;;1.90;;
34064;SDS011;20339;49.754;20.158;2023-04-03T01:06:08;1.80;;;1.50;;
34064;SDS011;20339;49.754;20.158;2023-04-03T01:08:39;2.10;;;1.60;;
34064;SDS011;20339;49.754;20.158;2023-04-03T01:11:07;1.40;;;1.30;;
34064;SDS011;20339;49.754;20.158;2023-04-03T01:13:36;2.20;;;2.00;;
34064;SDS011;20339;49.754;20.158;2023-04-03T01:16:05;2.60;;;1.90;;
34064;SDS011;20339;49.754;20.158;2023-04-03T01:18:35;1.70;;;1.60;;
34064;SDS011;20339;49.754;20.158;2023-04-03T01:21:12;2.60;;;1.70;;
34064;SDS011;20339;49.754;20.158;2023-04-03T01:26:49;3.30;;;1.90;;
34064;SDS011;20339;49.754;20.158;2023-04-03T01:29:18;1.90;;;1.40;;
34064;SDS011;20339;49.754;20.158;2023-04-03T01:31:47;1.70;;;1.40;;
34064;SDS011;20339;49.754;20.158;2023-04-03T01:34:20;2.50;;;1.40;;
34064;SDS011;20339;49.754;20.158;2023-04-03T01:36:49;1.70;;;1.20;;
34064;SDS011;20339;49.754;20.158;2023-04-03T01:39:18;1.40;;;1.00;;
34064;SDS011;20339;49.754;20.158;2023-04-03T01:41:48;1.30;;;1.20;;
34064;SDS011;20339;49.754;20.158;2023-04-03T01:44:16;1.20;;;1.00;;
34064;SDS011;20339;49.754;20.158;2023-04-03T01:46:45;1.40;;;1.00;;
34064;SDS011;20339;49.754;20.158;2023-04-03T01:49:14;1.80;;;0.90;;
34064;SDS011;20339;49.754;20.158;2023-04-03T01:51:42;1.00;;;0.90;;
34064;SDS011;20339;49.754;20.158;2023-04-03T01:54:10;1.10;;;1.00;;
34064;SDS011;20339;49.754;20.158;2023-04-03T01:56:39;1.20;;;0.90;;
34064;SDS011;20339;49.754;20.158;2023-04-03T01:59:07;1.20;;;1.00;;
34064;SDS011;20339;49.754;20.158;2023-04-03T02:01:36;2.20;;;1.30;;
34064;SDS011;20339;49.754;20.158;2023-04-03T02:04:04;1.30;;;1.20;;
34064;SDS011;20339;49.754;20.158;2023-04-03T02:06:32;2.00;;;1.20;;
34064;SDS011;20339;49.754;20.158;2023-04-03T02:09:01;1.30;;;1.20;;
34064;SDS011;20339;49.754;20.158;2023-04-03T02:11:30;2.10;;;1.50;;
34064;SDS011;20339;49.754;20.158;2023-04-03T02:13:59;1.50;;;1.40;;
34064;SDS011;20339;49.754;20.158;2023-04-03T02:16:30;2.00;;;1.40;;
34064;SDS011;20339;49.754;20.158;2023-04-03T02:18:58;1.70;;;1.30;;
34064;SDS011;20339;49.754;20.158;2023-04-03T02:21:26;1.60;;;1.30;;
34064;SDS011;20339;49.754;20.158;2023-04-03T02:23:55;1.60;;;1.00;;
34064;SDS011;20339;49.754;20.158;2023-04-03T02:26:23;1.60;;;1.30;;
34064;SDS011;20339;49.754;20.158;2023-04-03T02:28:54;2.20;;;1.60;;
34064;SDS011;20339;49.754;20.158;2023-04-03T02:31:23;2.00;;;1.40;;
34064;SDS011;20339;49.754;20.158;2023-04-03T02:33:51;1.90;;;1.20;;
34064;SDS011;20339;49.754;20.158;2023-04-03T02:36:20;1.50;;;1.10;;
34064;SDS011;20339;49.754;20.158;2023-04-03T02:38:48;1.50;;;1.20;;
34064;SDS011;20339;49.754;20.158;2023-04-03T02:41:17;1.30;;;1.10;;
34064;SDS011;20339;49.754;20.158;2023-04-03T02:43:45;1.50;;;1.20;;
34064;SDS011;20339;49.754;20.158;2023-04-03T02:46:13;1.80;;;1.20;;
34064;SDS011;20339;49.754;20.158;2023-04-03T02:48:42;1.40;;;1.20;;
34064;SDS011;20339;49.754;20.158;2023-04-03T02:51:10;1.80;;;1.50;;
34064;SDS011;20339;49.754;20.158;2023-04-03T02:53:38;2.80;;;1.70;;
34064;SDS011;20339;49.754;20.158;2023-04-03T02:56:07;2.20;;;1.70;;
34064;SDS011;20339;49.754;20.158;2023-04-03T02:58:35;2.30;;;1.80;;
34064;SDS011;20339;49.754;20.158;2023-04-03T03:01:04;1.90;;;1.40;;
34064;SDS011;20339;49.754;20.158;2023-04-03T03:03:32;1.80;;;1.50;;
34064;SDS011;20339;49.754;20.158;2023-04-03T03:06:01;2.40;;;1.70;;
34064;SDS011;20339;49.754;20.158;2023-04-03T03:08:31;2.00;;;1.50;;
34064;SDS011;20339;49.754;20.158;2023-04-03T03:11:00;1.30;;;1.20;;
34064;SDS011;20339;49.754;20.158;2023-04-03T03:13:29;1.40;;;1.30;;
34064;SDS011;20339;49.754;20.158;2023-04-03T03:15:58;1.90;;;1.50;;
34064;SDS011;20339;49.754;20.158;2023-04-03T03:18:27;1.70;;;1.40;;
34064;SDS011;20339;49.754;20.158;2023-04-03T03:20:56;1.40;;;1.30;;
34064;SDS011;20339;49.754;20.158;2023-04-03T03:23:26;1.30;;;1.10;;
34064;SDS011;20339;49.754;20.158;2023-04-03T03:25:56;2.10;;;1.40;;
34064;SDS011;20339;49.754;20.158;2023-04-03T03:28:26;1.70;;;1.40;;
34064;SDS011;20339;49.754;20.158;2023-04-03T03:30:54;1.30;;;1.20;;
34064;SDS011;20339;49.754;20.158;2023-04-03T03:33:23;1.60;;;1.20;;
34064;SDS011;20339;49.754;20.158;2023-04-03T03:35:52;3.10;;;1.90;;
34064;SDS011;20339;49.754;20.158;2023-04-03T03:38:21;1.70;;;1.10;;
34064;SDS011;20339;49.754;20.158;2023-04-03T03:43:18;1.80;;;1.30;;
34064;SDS011;20339;49.754;20.158;2023-04-03T03:45:50;1.60;;;1.20;;
34064;SDS011;20339;49.754;20.158;2023-04-03T03:48:20;1.70;;;1.40;;
34064;SDS011;20339;49.754;20.158;2023-04-03T03:50:49;1.80;;;1.00;;
34064;SDS011;20339;49.754;20.158;2023-04-03T03:53:17;1.90;;;1.10;;
34064;SDS011;20339;49.754;20.158;2023-04-03T03:55:46;1.60;;;1.20;;
34064;SDS011;20339;49.754;20.158;2023-04-03T03:58:14;1.30;;;1.20;;
34064;SDS011;20339;49.754;20.158;2023-04-03T04:00:43;2.30;;;1.30;;
34064;SDS011;20339;49.754;20.158;2023-04-03T04:03:13;3.30;;;1.60;;
34064;SDS011;20339;49.754;20.158;2023-04-03T04:05:42;1.90;;;1.50;;
34064;SDS011;20339;49.754;20.158;2023-04-03T04:08:11;3.40;;;1.70;;
34064;SDS011;20339;49.754;20.158;2023-04-03T04:10:39;1.90;;;1.60;;
34064;SDS011;20339;49.754;20.158;2023-04-03T04:13:08;2.80;;;1.80;;
34064;SDS011;20339;49.754;20.158;2023-04-03T04:15:36;2.20;;;1.80;;
34064;SDS011;20339;49.754;20.158;2023-04-03T04:18:05;3.00;;;2.00;;
34064;SDS011;20339;49.754;20.158;2023-04-03T04:20:33;2.00;;;1.60;;
34064;SDS011;20339;49.754;20.158;2023-04-03T04:23:02;2.00;;;1.80;;
34064;SDS011;20339;49.754;20.158;2023-04-03T04:25:31;1.70;;;1.60;;
34064;SDS011;20339;49.754;20.158;2023-04-03T04:27:59;2.00;;;1.40;;
34064;SDS011;20339;49.754;20.158;2023-04-03T04:30:28;1.90;;;1.70;;
34064;SDS011;20339;49.754;20.158;2023-04-03T04:32:57;3.10;;;1.60;;
34064;SDS011;20339;49.754;20.158;2023-04-03T04:35:25;1.60;;;1.30;;
34064;SDS011;20339;49.754;20.158;2023-04-03T04:37:54;2.00;;;1.30;;
34064;SDS011;20339;49.754;20.158;2023-04-03T04:40:26;1.90;;;1.40;;
34064;SDS011;20339;49.754;20.158;2023-04-03T04:45:42;3.70;;;2.10;;
34064;SDS011;20339;49.754;20.158;2023-04-03T04:48:11;2.90;;;2.20;;
34064;SDS011;20339;49.754;20.158;2023-04-03T04:50:39;2.90;;;1.90;;
34064;SDS011;20339;49.754;20.158;2023-04-03T04:53:07;2.50;;;2.30;;
34064;SDS011;20339;49.754;20.158;2023-04-03T04:55:36;2.30;;;1.80;;
34064;SDS011;20339;49.754;20.158;2023-04-03T04:58:04;2.70;;;2.30;;
34064;SDS011;20339;49.754;20.158;2023-04-03T05:00:33;2.40;;;1.80;;
34064;SDS011;20339;49.754;20.158;2023-04-03T05:03:01;4.10;;;2.80;;
34064;SDS011;20339;49.754;20.158;2023-04-03T05:05:29;3.90;;;2.90;;
34064;SDS011;20339;49.754;20.158;2023-04-03T05:07:58;1.80;;;1.50;;
34064;SDS011;20339;49.754;20.158;2023-04-03T05:10:26;3.20;;;2.20;;
34064;SDS011;20339;49.754;20.158;2023-04-03T05:12:55;2.20;;;2.00;;
34064;SDS011;20339;49.754;20.158;2023-04-03T05:15:23;2.50;;;2.00;;
34064;SDS011;20339;49.754;20.158;2023-04-03T05:17:51;2.60;;;2.10;;
34064;SDS011;20339;49.754;20.158;2023-04-03T05:20:20;2.10;;;1.90;;
34064;SDS011;20339;49.754;20.158;2023-04-03T05:22:48;2.20;;;1.70;;
34064;SDS011;20339;49.754;20.158;2023-04-03T05:25:17;2.70;;;1.90;;
34064;SDS011;20339;49.754;20.158;2023-04-03T05:27:45;2.30;;;2.10;;
34064;SDS011;20339;49.754;20.158;2023-04-03T05:30:14;1.90;;;1.70;;
34064;SDS011;20339;49.754;20.158;2023-04-03T05:32:43;2.90;;;2.20;;
34064;SDS011;20339;49.754;20.158;2023-04-03T05:35:12;2.90;;;2.60;;
34064;SDS011;20339;49.754;20.158;2023-04-03T05:37:40;4.00;;;2.30;;
34064;SDS011;20339;49.754;20.158;2023-04-03T05:40:12;2.60;;;2.20;;
34064;SDS011;20339;49.754;20.158;2023-04-03T05:42:40;4.10;;;2.80;;
34064;SDS011;20339;49.754;20.158;2023-04-03T05:45:09;2.70;;;2.40;;
34064;SDS011;20339;49.754;20.158;2023-04-03T05:47:38;2.80;;;2.10;;
34064;SDS011;20339;49.754;20.158;2023-04-03T05:50:06;3.00;;;2.10;;
34064;SDS011;20339;49.754;20.158;2023-04-03T05:52:36;2.80;;;2.50;;
34064;SDS011;20339;49.754;20.158;2023-04-03T05:55:09;2.40;;;2.20;;
34064;SDS011;20339;49.754;20.158;2023-04-03T05:57:38;3.60;;;2.50;;
34064;SDS011;20339;49.754;20.158;2023-04-03T06:00:07;4.20;;;2.90;;
34064;SDS011;20339;49.754;20.158;2023-04-03T06:02:41;2.80;;;2.30;;
34064;SDS011;20339;49.754;20.158;2023-04-03T06:05:09;3.40;;;2.50;;
34064;SDS011;20339;49.754;20.158;2023-04-03T06:07:40;3.90;;;2.50;;
34064;SDS011;20339;49.754;20.158;2023-04-03T06:12:38;3.20;;;2.40;;
34064;SDS011;20339;49.754;20.158;2023-04-03T06:15:07;5.30;;;2.80;;
34064;SDS011;20339;49.754;20.158;2023-04-03T06:17:37;3.10;;;2.40;;
34064;SDS011;20339;49.754;20.158;2023-04-03T06:20:06;2.40;;;1.60;;
34064;SDS011;20339;49.754;20.158;2023-04-03T06:22:36;3.20;;;2.40;;
34064;SDS011;20339;49.754;20.158;2023-04-03T06:25:07;2.80;;;2.20;;
34064;SDS011;20339;49.754;20.158;2023-04-03T06:27:37;3.90;;;2.50;;
34064;SDS011;20339;49.754;20.158;2023-04-03T06:30:08;3.10;;;2.70;;
34064;SDS011;20339;49.754;20.158;2023-04-03T06:32:38;4.00;;;2.70;;
34064;SDS011;20339;49.754;20.158;2023-04-03T06:35:07;3.10;;;2.30;;
34064;SDS011;20339;49.754;20.158;2023-04-03T06:37:36;3.70;;;2.60;;
34064;SDS011;20339;49.754;20.158;2023-04-03T06:40:06;3.90;;;2.60;;
34064;SDS011;20339;49.754;20.158;2023-04-03T06:42:37;4.00;;;2.50;;
34064;SDS011;20339;49.754;20.158;2023-04-03T06:45:06;4.80;;;3.00;;
34064;SDS011;20339;49.754;20.158;2023-04-03T06:47:38;2.80;;;2.40;;
34064;SDS011;20339;49.754;20.158;2023-04-03T06:50:07;3.30;;;2.40;;
34064;SDS011;20339;49.754;20.158;2023-04-03T06:52:37;3.00;;;2.20;;
34064;SDS011;20339;49.754;20.158;2023-04-03T06:55:06;4.20;;;2.60;;
34064;SDS011;20339;49.754;20.158;2023-04-03T06:57:36;3.70;;;2.50;;
34064;SDS011;20339;49.754;20.158;2023-04-03T07:00:05;3.40;;;2.60;;
34064;SDS011;20339;49.754;20.158;2023-04-03T07:02:36;3.10;;;2.60;;
34064;SDS011;20339;49.754;20.158;2023-04-03T07:05:07;2.70;;;1.80;;
34064;SDS011;20339;49.754;20.158;2023-04-03T07:07:36;3.50;;;2.40;;
34064;SDS011;20339;49.754;20.158;2023-04-03T07:10:06;4.00;;;2.40;;
34064;SDS011;20339;49.754;20.158;2023-04-03T07:12:36;2.70;;;2.10;;
34064;SDS011;20339;49.754;20.158;2023-04-03T07:15:05;4.60;;;2.70;;
34064;SDS011;20339;49.754;20.158;2023-04-03T07:17:35;3.30;;;2.20;;
34064;SDS011;20339;49.754;20.158;2023-04-03T07:20:05;3.30;;;2.20;;
34064;SDS011;20339;49.754;20.158;2023-04-03T07:22:35;4.30;;;2.40;;
34064;SDS011;20339;49.754;20.158;2023-04-03T07:25:04;5.40;;;2.20;;
34064;SDS011;20339;49.754;20.158;2023-04-03T07:27:34;4.00;;;2.30;;
34064;SDS011;20339;49.754;20.158;2023-04-03T07:30:03;3.90;;;1.80;;
34064;SDS011;20339;49.754;20.158;2023-04-03T07:32:33;2.60;;;2.10;;
34064;SDS011;20339;49.754;20.158;2023-04-03T07:35:02;3.20;;;2.30;;
34064;SDS011;20339;49.754;20.158;2023-04-03T07:37:31;2.80;;;2.60;;
34064;SDS011;20339;49.754;20.158;2023-04-03T07:39:59;4.80;;;2.50;;
34064;SDS011;20339;49.754;20.158;2023-04-03T07:42:30;2.40;;;2.20;;
34064;SDS011;20339;49.754;20.158;2023-04-03T07:44:58;3.40;;;2.40;;
34064;SDS011;20339;49.754;20.158;2023-04-03T07:47:26;3.80;;;2.50;;
34064;SDS011;20339;49.754;20.158;2023-04-03T07:49:55;4.20;;;2.30;;
34064;SDS011;20339;49.754;20.158;2023-04-03T07:52:24;3.20;;;2.50;;
34064;SDS011;20339;49.754;20.158;2023-04-03T07:54:52;4.40;;;2.40;;
34064;SDS011;20339;49.754;20.158;2023-04-03T07:57:20;4.50;;;2.80;;
34064;SDS011;20339;49.754;20.158;2023-04-03T07:59:49;5.80;;;2.90;;
34064;SDS011;20339;49.754;20.158;2023-04-03T08:02:17;4.50;;;2.60;;
34064;SDS011;20339;49.754;20.158;2023-04-03T08:04:46;5.40;;;2.80;;
34064;SDS011;20339;49.754;20.158;2023-04-03T08:07:14;4.70;;;2.40;;
34064;SDS011;20339;49.754;20.158;2023-04-03T08:09:43;4.40;;;2.50;;
34064;SDS011;20339;49.754;20.158;2023-04-03T08:12:11;3.10;;;2.10;;
34064;SDS011;20339;49.754;20.158;2023-04-03T08:14:41;5.40;;;2.40;;
34064;SDS011;20339;49.754;20.158;2023-04-03T08:17:09;5.00;;;2.70;;
34064;SDS011;20339;49.754;20.158;2023-04-03T08:19:38;5.50;;;2.70;;
34064;SDS011;20339;49.754;20.158;2023-04-03T08:22:07;4.80;;;2.80;;
34064;SDS011;20339;49.754;20.158;2023-04-03T08:24:35;5.70;;;3.20;;
34064;SDS011;20339;49.754;20.158;2023-04-03T08:27:04;6.50;;;2.80;;
34064;SDS011;20339;49.754;20.158;2023-04-03T08:29:32;5.90;;;3.00;;
34064;SDS011;20339;49.754;20.158;2023-04-03T08:32:00;4.10;;;2.00;;
34064;SDS011;20339;49.754;20.158;2023-04-03T08:34:29;4.30;;;2.40;;
34064;SDS011;20339;49.754;20.158;2023-04-03T08:37:01;6.10;;;2.80;;
34064;SDS011;20339;49.754;20.158;2023-04-03T08:39:29;5.80;;;3.10;;
34064;SDS011;20339;49.754;20.158;2023-04-03T08:41:58;5.80;;;4.00;;
34064;SDS011;20339;49.754;20.158;2023-04-03T08:44:34;6.00;;;3.30;;
34064;SDS011;20339;49.754;20.158;2023-04-03T08:47:12;5.70;;;2.60;;
34064;SDS011;20339;49.754;20.158;2023-04-03T08:49:51;5.20;;;3.00;;
34064;SDS011;20339;49.754;20.158;2023-04-03T08:52:23;5.30;;;3.40;;
34064;SDS011;20339;49.754;20.158;2023-04-03T08:55:00;4.70;;;2.60;;
34064;SDS011;20339;49.754;20.158;2023-04-03T08:57:31;4.10;;;2.30;;
34064;SDS011;20339;49.754;20.158;2023-04-03T09:00:05;3.80;;;2.20;;
34064;SDS011;20339;49.754;20.158;2023-04-03T09:02:43;4.40;;;2.30;;
34064;SDS011;20339;49.754;20.158;2023-04-03T09:05:15;4.50;;;2.50;;
34064;SDS011;20339;49.754;20.158;2023-04-03T09:07:46;3.50;;;2.10;;
34064;SDS011;20339;49.754;20.158;2023-04-03T09:10:21;5.60;;;2.70;;
34064;SDS011;20339;49.754;20.158;2023-04-03T09:12:55;4.80;;;2.40;;
34064;SDS011;20339;49.754;20.158;2023-04-03T09:15:33;5.30;;;2.50;;
34064;SDS011;20339;49.754;20.158;2023-04-03T09:18:04;4.90;;;2.50;;
34064;SDS011;20339;49.754;20.158;2023-04-03T09:20:41;5.20;;;2.90;;
34064;SDS011;20339;49.754;20.158;2023-04-03T09:23:21;3.70;;;2.60;;
34064;SDS011;20339;49.754;20.158;2023-04-03T09:25:56;5.20;;;2.80;;
34064;SDS011;20339;49.754;20.158;2023-04-03T09:28:30;5.00;;;2.90;;
34064;SDS011;20339;49.754;20.158;2023-04-03T09:31:01;5.80;;;2.60;;
34064;SDS011;20339;49.754;20.158;2023-04-03T09:33:41;3.60;;;2.60;;
34064;SDS011;20339;49.754;20.158;2023-04-03T09:36:10;3.30;;;2.40;;
34064;SDS011;20339;49.754;20.158;2023-04-03T09:38:39;6.20;;;2.80;;
34064;SDS011;20339;49.754;20.158;2023-04-03T09:43:43;4.30;;;2.20;;
34064;SDS011;20339;49.754;20.158;2023-04-03T09:46:29;4.10;;;2.90;;
34064;SDS011;20339;49.754;20.158;2023-04-03T09:49:02;5.30;;;2.90;;
34064;SDS011;20339;49.754;20.158;2023-04-03T09:51:31;5.20;;;2.90;;
34064;SDS011;20339;49.754;20.158;2023-04-03T09:53:59;4.20;;;2.80;;
34064;SDS011;20339;49.754;20.158;2023-04-03T09:56:55;5.40;;;3.00;;
34064;SDS011;20339;49.754;20.158;2023-04-03T09:59:28;3.10;;;2.20;;
34064;SDS011;20339;49.754;20.158;2023-04-03T10:01:58;4.30;;;2.70;;
34064;SDS011;20339;49.754;20.158;2023-04-03T10:04:37;3.50;;;2.20;;
34064;SDS011;20339;49.754;20.158;2023-04-03T10:12:24;3.90;;;2.10;;
34064;SDS011;20339;49.754;20.158;2023-04-03T10:14:56;3.40;;;2.30;;
34064;SDS011;20339;49.754;20.158;2023-04-03T10:17:40;4.30;;;2.90;;
34064;SDS011;20339;49.754;20.158;2023-04-03T10:20:26;4.70;;;2.60;;
34064;SDS011;20339;49.754;20.158;2023-04-03T10:23:05;4.20;;;2.50;;
34064;SDS011;20339;49.754;20.158;2023-04-03T10:25:48;5.00;;;2.60;;
34064;SDS011;20339;49.754;20.158;2023-04-03T10:28:32;4.40;;;2.30;;
34064;SDS011;20339;49.754;20.158;2023-04-03T10:31:08;2.80;;;1.80;;
34064;SDS011;20339;49.754;20.158;2023-04-03T10:33:51;2.80;;;1.90;;
34064;SDS011;20339;49.754;20.158;2023-04-03T10:36:32;4.10;;;1.80;;
34064;SDS011;20339;49.754;20.158;2023-04-03T10:39:08;2.70;;;1.70;;
34064;SDS011;20339;49.754;20.158;2023-04-03T10:41:53;3.50;;;1.60;;
34064;SDS011;20339;49.754;20.158;2023-04-03T10:44:32;2.90;;;2.30;;
34064;SDS011;20339;49.754;20.158;2023-04-03T10:47:11;3.30;;;2.30;;
34064;SDS011;20339;49.754;20.158;2023-04-03T10:49:50;3.00;;;2.20;;
34064;SDS011;20339;49.754;20.158;2023-04-03T10:52:29;4.60;;;1.90;;
34064;SDS011;20339;49.754;20.158;2023-04-03T10:55:06;2.40;;;1.80;;
34064;SDS011;20339;49.754;20.158;2023-04-03T10:57:51;2.40;;;1.80;;
34064;SDS011;20339;49.754;20.158;2023-04-03T11:00:25;4.30;;;2.80;;
34064;SDS011;20339;49.754;20.158;2023-04-03T11:03:03;3.70;;;2.50;;
34064;SDS011;20339;49.754;20.158;2023-04-03T11:05:36;3.70;;;2.20;;
34064;SDS011;20339;49.754;20.158;2023-04-03T11:08:10;4.10;;;2.20;;
34064;SDS011;20339;49.754;20.158;2023-04-03T11:10:46;2.90;;;1.90;;
34064;SDS011;20339;49.754;20.158;2023-04-03T11:13:18;5.60;;;2.80;;
34064;SDS011;20339;49.754;20.158;2023-04-03T11:15:50;3.40;;;2.10;;
34064;SDS011;20339;49.754;20.158;2023-04-03T11:18:22;4.20;;;2.10;;
34064;SDS011;20339;49.754;20.158;2023-04-03T11:20:58;5.60;;;3.10;;
34064;SDS011;20339;49.754;20.158;2023-04-03T11:23:31;4.20;;;2.70;;
34064;SDS011;20339;49.754;20.158;2023-04-03T11:26:07;3.30;;;2.40;;
34064;SDS011;20339;49.754;20.158;2023-04-03T11:28:38;3.10;;;2.20;;
34064;SDS011;20339;49.754;20.158;2023-04-03T11:33:43;5.60;;;2.80;;
34064;SDS011;20339;49.754;20.158;2023-04-03T11:36:19;5.70;;;3.70;;
34064;SDS011;20339;49.754;20.158;2023-04-03T11:38:52;5.80;;;3.20;;
34064;SDS011;20339;49.754;20.158;2023-04-03T11:41:27;4.40;;;3.00;;
34064;SDS011;20339;49.754;20.158;2023-04-03T11:43:58;4.90;;;3.30;;
34064;SDS011;20339;49.754;20.158;2023-04-03T11:58:23;4.60;;;2.60;;
34064;SDS011;20339;49.754;20.158;2023-04-03T12:00:57;4.40;;;2.10;;
34064;SDS011;20339;49.754;20.158;2023-04-03T12:12:34;26.90;;;10.60;;
34064;SDS011;20339;49.754;20.158;2023-04-03T12:15:41;10.80;;;4.50;;
34064;SDS011;20339;49.754;20.158;2023-04-03T12:18:40;4.60;;;3.00;;
34064;SDS011;20339;49.754;20.158;2023-04-03T12:21:10;5.20;;;2.50;;
34064;SDS011;20339;49.754;20.158;2023-04-03T12:26:51;4.30;;;2.70;;
34064;SDS011;20339;49.754;20.158;2023-04-03T12:29:34;4.10;;;2.50;;
34064;SDS011;20339;49.754;20.158;2023-04-03T12:32:11;16.10;;;7.40;;
34064;SDS011;20339;49.754;20.158;2023-04-03T12:34:55;5.50;;;3.10;;
34064;SDS011;20339;49.754;20.158;2023-04-03T12:37:39;6.20;;;3.00;;
34064;SDS011;20339;49.754;20.158;2023-04-03T12:40:17;12.70;;;6.80;;
34064;SDS011;20339;49.754;20.158;2023-04-03T12:43:04;7.40;;;4.20;;
34064;SDS011;20339;49.754;20.158;2023-04-03T12:45:44;5.00;;;2.80;;
34064;SDS011;20339;49.754;20.158;2023-04-03T12:48:17;4.60;;;2.80;;
34064;SDS011;20339;49.754;20.158;2023-04-03T12:50:49;7.70;;;3.40;;
34064;SDS011;20339;49.754;20.158;2023-04-03T12:53:19;4.60;;;2.90;;
34064;SDS011;20339;49.754;20.158;2023-04-03T12:55:53;11.90;;;4.90;;
34064;SDS011;20339;49.754;20.158;2023-04-03T12:58:23;9.30;;;4.60;;
34064;SDS011;20339;49.754;20.158;2023-04-03T13:01:01;10.10;;;4.70;;
34064;SDS011;20339;49.754;20.158;2023-04-03T13:03:31;6.80;;;3.30;;
34064;SDS011;20339;49.754;20.158;2023-04-03T13:06:10;6.40;;;3.50;;
34064;SDS011;20339;49.754;20.158;2023-04-03T13:08:49;4.20;;;2.80;;
34064;SDS011;20339;49.754;20.158;2023-04-03T13:11:18;4.70;;;3.20;;
34064;SDS011;20339;49.754;20.158;2023-04-03T13:13:55;5.50;;;2.80;;
34064;SDS011;20339;49.754;20.158;2023-04-03T13:16:26;5.00;;;3.00;;
34064;SDS011;20339;49.754;20.158;2023-04-03T13:18:55;5.10;;;2.70;;
34064;SDS011;20339;49.754;20.158;2023-04-03T13:21:24;3.40;;;2.70;;
34064;SDS011;20339;49.754;20.158;2023-04-03T13:23:56;5.90;;;3.20;;
34064;SDS011;20339;49.754;20.158;2023-04-03T13:26:27;4.90;;;3.30;;
34064;SDS011;20339;49.754;20.158;2023-04-03T13:28:59;4.50;;;2.60;;
34064;SDS011;20339;49.754;20.158;2023-04-03T13:31:32;5.20;;;2.80;;
34064;SDS011;20339;49.754;20.158;2023-04-03T13:34:03;6.10;;;3.20;;
34064;SDS011;20339;49.754;20.158;2023-04-03T13:36:36;4.40;;;2.90;;
34064;SDS011;20339;49.754;20.158;2023-04-03T13:39:19;3.70;;;2.60;;
34064;SDS011;20339;49.754;20.158;2023-04-03T13:41:51;4.30;;;2.60;;
34064;SDS011;20339;49.754;20.158;2023-04-03T13:44:33;5.70;;;2.70;;
34064;SDS011;20339;49.754;20.158;2023-04-03T13:47:15;4.70;;;2.30;;
34064;SDS011;20339;49.754;20.158;2023-04-03T13:49:58;4.10;;;2.20;;
34064;SDS011;20339;49.754;20.158;2023-04-03T13:52:29;3.80;;;2.50;;
34064;SDS011;20339;49.754;20.158;2023-04-03T13:55:03;4.80;;;2.20;;
34064;SDS011;20339;49.754;20.158;2023-04-03T13:57:52;4.00;;;2.10;;
34064;SDS011;20339;49.754;20.158;2023-04-03T14:00:34;2.90;;;2.10;;
34064;SDS011;20339;49.754;20.158;2023-04-03T14:03:12;4.30;;;2.10;;
34064;SDS011;20339;49.754;20.158;2023-04-03T14:05:45;4.20;;;2.00;;
34064;SDS011;20339;49.754;20.158;2023-04-03T14:08:14;5.20;;;2.90;;
34064;SDS011;20339;49.754;20.158;2023-04-03T14:10:43;4.00;;;2.90;;
34064;SDS011;20339;49.754;20.158;2023-04-03T14:13:14;6.40;;;2.90;;
34064;SDS011;20339;49.754;20.158;2023-04-03T14:15:45;4.40;;;2.20;;
34064;SDS011;20339;49.754;20.158;2023-04-03T14:18:17;4.50;;;2.40;;
34064;SDS011;20339;49.754;20.158;2023-04-03T14:20:48;4.00;;;2.40;;
34064;SDS011;20339;49.754;20.158;2023-04-03T14:23:17;3.20;;;2.30;;
34064;SDS011;20339;49.754;20.158;2023-04-03T14:25:46;4.00;;;2.30;;
34064;SDS011;20339;49.754;20.158;2023-04-03T14:28:17;5.10;;;2.40;;
34064;SDS011;20339;49.754;20.158;2023-04-03T14:30:47;5.40;;;2.90;;
34064;SDS011;20339;49.754;20.158;2023-04-03T14:33:18;4.80;;;2.80;;
34064;SDS011;20339;49.754;20.158;2023-04-03T14:35:52;6.00;;;2.90;;
34064;SDS011;20339;49.754;20.158;2023-04-03T14:38:23;5.50;;;3.00;;
34064;SDS011;20339;49.754;20.158;2023-04-03T14:40:53;5.30;;;2.50;;
34064;SDS011;20339;49.754;20.158;2023-04-03T14:43:24;3.60;;;2.40;;
34064;SDS011;20339;49.754;20.158;2023-04-03T14:48:21;4.60;;;2.40;;
34064;SDS011;20339;49.754;20.158;2023-04-03T14:50:54;5.70;;;2.60;;
34064;SDS011;20339;49.754;20.158;2023-04-03T14:53:22;3.60;;;2.10;;
34064;SDS011;20339;49.754;20.158;2023-04-03T14:55:52;4.40;;;2.40;;
34064;SDS011;20339;49.754;20.158;2023-04-03T14:58:21;7.10;;;4.40;;
34064;SDS011;20339;49.754;20.158;2023-04-03T15:00:50;9.70;;;5.20;;
34064;SDS011;20339;49.754;20.158;2023-04-03T15:03:20;4.90;;;3.30;;
34064;SDS011;20339;49.754;20.158;2023-04-03T15:05:49;6.60;;;3.00;;
34064;SDS011;20339;49.754;20.158;2023-04-03T15:08:20;5.70;;;3.40;;
34064;SDS011;20339;49.754;20.158;2023-04-03T15:10:51;9.00;;;5.10;;
34064;SDS011;20339;49.754;20.158;2023-04-03T15:13:23;5.50;;;3.00;;
34064;SDS011;20339;49.754;20.158;2023-04-03T15:15:55;5.90;;;3.00;;
34064;SDS011;20339;49.754;20.158;2023-04-03T15:18:24;4.80;;;2.80;;
34064;SDS011;20339;49.754;20.158;2023-04-03T15:20:54;8.30;;;2.90;;
34064;SDS011;20339;49.754;20.158;2023-04-03T15:23:23;3.30;;;2.50;;
34064;SDS011;20339;49.754;20.158;2023-04-03T15:25:53;4.80;;;2.70;;
34064;SDS011;20339;49.754;20.158;2023-04-03T15:28:23;5.20;;;2.90;;
34064;SDS011;20339;49.754;20.158;2023-04-03T15:30:57;5.70;;;2.60;;
34064;SDS011;20339;49.754;20.158;2023-04-03T15:33:26;4.60;;;2.70;;
34064;SDS011;20339;49.754;20.158;2023-04-03T15:35:55;3.90;;;2.50;;
34064;SDS011;20339;49.754;20.158;2023-04-03T15:38:23;3.40;;;2.40;;
34064;SDS011;20339;49.754;20.158;2023-04-03T15:40:52;4.70;;;2.40;;
34064;SDS011;20339;49.754;20.158;2023-04-03T15:43:22;5.00;;;2.60;;
34064;SDS011;20339;49.754;20.158;2023-04-03T15:45:51;4.90;;;2.80;;
34064;SDS011;20339;49.754;20.158;2023-04-03T15:48:25;7.50;;;2.50;;